createdAt,value
2019-01-12T00:01:54.609Z,0.20
2019-01-12T00:04:20.515Z,0.47
2019-01-12T00:06:46.398Z,0.37
2019-01-12T00:09:12.543Z,0.40
2019-01-12T00:11:38.446Z,0.20
2019-01-12T00:14:04.339Z,0.30
2019-01-12T00:16:30.504Z,0.50
2019-01-12T00:18:56.505Z,0.47
2019-01-12T00:21:22.418Z,0.43
2019-01-12T00:23:48.607Z,0.40
2019-01-12T00:26:14.746Z,0.13
2019-01-12T00:28:40.632Z,0.40
2019-01-12T00:31:06.946Z,0.63
2019-01-12T00:33:33.220Z,0.40
2019-01-12T00:35:59.227Z,0.30
2019-01-12T00:38:25.292Z,0.20
2019-01-12T00:40:51.314Z,0.50
2019-01-12T00:43:17.208Z,0.30
2019-01-12T00:45:43.352Z,0.33
2019-01-12T00:48:09.416Z,0.33
2019-01-12T00:50:35.340Z,0.30
2019-01-12T00:53:01.469Z,0.30
2019-01-12T00:55:27.365Z,0.63
2019-01-12T00:57:53.273Z,0.17
2019-01-12T01:00:20.350Z,0.53
2019-01-12T01:02:46.479Z,0.47
2019-01-12T01:05:12.819Z,0.30
2019-01-12T01:07:39.069Z,0.30
2019-01-12T01:10:08.784Z,0.30
2019-01-12T01:12:34.921Z,0.30
2019-01-12T01:15:01.197Z,0.30
2019-01-12T01:17:27.282Z,0.37
2019-01-12T01:19:53.183Z,0.33
2019-01-12T01:22:19.296Z,0.23
2019-01-12T01:24:45.899Z,0.37
2019-01-12T01:27:12.119Z,0.47
2019-01-12T01:29:38.219Z,0.30
2019-01-12T01:32:04.322Z,0.50
2019-01-12T01:34:30.419Z,0.20
2019-01-12T01:36:56.624Z,0.50
2019-01-12T01:39:22.549Z,0.20
2019-01-12T01:41:48.549Z,0.50
2019-01-12T01:44:14.644Z,0.30
2019-01-12T01:46:40.674Z,0.20
2019-01-12T01:49:06.785Z,0.30
2019-01-12T01:51:32.852Z,0.20
2019-01-12T01:53:58.738Z,0.30
2019-01-12T01:56:24.766Z,0.57
2019-01-12T01:58:50.852Z,0.50
2019-01-12T02:01:16.868Z,0.40
2019-01-12T02:03:42.803Z,0.33
2019-01-12T02:06:08.857Z,0.20
2019-01-12T02:08:34.768Z,0.43
2019-01-12T02:11:00.794Z,0.50
2019-01-12T02:13:27.094Z,0.50
2019-01-12T02:15:53.209Z,0.40
2019-01-12T02:18:19.223Z,0.40
2019-01-12T02:20:45.346Z,0.40
2019-01-12T02:23:11.246Z,0.10
2019-01-12T02:25:37.363Z,0.40
2019-01-12T02:28:03.580Z,0.50
2019-01-12T02:30:29.669Z,0.63
2019-01-12T02:32:55.589Z,0.40
2019-01-12T02:35:22.289Z,0.37
2019-01-12T02:37:48.174Z,0.50
2019-01-12T02:40:14.298Z,0.27
2019-01-12T02:42:40.632Z,0.40
2019-01-12T02:45:09.769Z,0.20
2019-01-12T02:47:35.687Z,0.40
2019-01-12T02:50:03.426Z,0.40
2019-01-12T02:52:29.371Z,0.60
2019-01-12T02:54:55.265Z,0.40
2019-01-12T02:57:21.301Z,0.30
2019-01-12T02:59:47.193Z,0.30
2019-01-12T03:02:13.118Z,0.37
2019-01-12T03:04:39.216Z,0.30
2019-01-12T03:07:05.345Z,0.30
2019-01-12T03:09:31.229Z,0.20
2019-01-12T03:11:57.440Z,0.20
2019-01-12T03:14:23.388Z,0.10
2019-01-12T03:16:49.409Z,0.20
2019-01-12T03:19:15.626Z,0.20
2019-01-12T03:21:41.564Z,0.30
2019-01-12T03:24:07.614Z,0.10
2019-01-12T03:26:33.769Z,0.30
2019-01-12T03:28:59.776Z,0.40
2019-01-12T03:31:25.723Z,0.50
2019-01-12T03:33:52.189Z,0.20
2019-01-12T03:36:18.205Z,0.30
2019-01-12T03:38:44.102Z,0.20
2019-01-12T03:41:10.280Z,0.30
2019-01-12T03:43:36.322Z,0.20
2019-01-12T03:46:02.838Z,0.20
2019-01-12T03:48:28.964Z,0.20
2019-01-12T03:50:54.954Z,0.10
2019-01-12T03:53:20.990Z,0.20
2019-01-12T03:55:47.126Z,0.40
2019-01-12T03:58:13.113Z,0.20
2019-01-12T04:00:39.028Z,0.30
2019-01-12T04:03:05.289Z,0.20
2019-01-12T04:05:31.292Z,0.40
2019-01-12T04:07:57.370Z,0.30
2019-01-12T04:10:23.494Z,0.20
2019-01-12T04:12:49.500Z,0.10
2019-01-12T04:15:15.705Z,0.10
2019-01-12T04:17:42.033Z,0.30
2019-01-12T04:20:11.430Z,0.23
2019-01-12T04:22:37.412Z,0.10
2019-01-12T04:25:04.026Z,0.13
2019-01-12T04:27:29.939Z,0.30
2019-01-12T04:29:55.954Z,0.20
2019-01-12T04:32:22.041Z,0.10
2019-01-12T04:34:47.965Z,0.10
2019-01-12T04:37:13.878Z,0.10
2019-01-12T04:39:40.023Z,0.20
2019-01-12T04:42:06.148Z,0.10
2019-01-12T04:44:32.166Z,0.20
2019-01-12T04:46:58.301Z,0.20
2019-01-12T04:49:24.221Z,0.20
2019-01-12T04:51:50.236Z,0.20
2019-01-12T04:54:16.407Z,0.20
2019-01-12T04:56:42.350Z,0.17
2019-01-12T04:59:08.377Z,0.20
2019-01-12T05:01:34.620Z,0.17
2019-01-12T05:04:00.601Z,0.10
2019-01-12T05:06:26.617Z,0.10
2019-01-12T05:08:52.958Z,0.10
2019-01-12T05:11:18.863Z,0.03
2019-01-12T05:13:44.883Z,0.10
2019-01-12T05:16:10.914Z,0.13
2019-01-12T05:18:36.909Z,0.10
2019-01-12T05:21:02.905Z,0.10
2019-01-12T05:23:29.138Z,0.10
2019-01-12T05:25:55.030Z,0.10
2019-01-12T05:28:20.931Z,0.10
2019-01-12T05:30:47.213Z,0.20
2019-01-12T05:33:13.221Z,0.13
2019-01-12T05:35:39.138Z,0.20
2019-01-12T05:38:05.279Z,0.10
2019-01-12T05:40:31.171Z,0.10
2019-01-12T05:42:57.107Z,0.20
2019-01-12T05:45:23.400Z,0.10
2019-01-12T05:47:49.333Z,0.10
2019-01-12T05:50:15.308Z,0.10
2019-01-12T05:52:41.514Z,0.10
2019-01-12T05:55:07.892Z,0.00
2019-01-12T05:57:33.815Z,0.10
2019-01-12T05:59:59.906Z,0.20
2019-01-12T06:02:25.793Z,0.27
2019-01-12T06:04:51.813Z,0.30
2019-01-12T06:07:18.049Z,0.00
2019-01-12T06:09:44.080Z,0.17
2019-01-12T06:12:10.074Z,0.10
2019-01-12T06:14:36.190Z,0.10
2019-01-12T06:17:02.305Z,0.30
2019-01-12T06:19:28.254Z,0.10
2019-01-12T06:21:54.355Z,0.10
2019-01-12T06:24:20.302Z,0.10
2019-01-12T06:26:46.371Z,0.10
2019-01-12T06:29:12.461Z,0.20
2019-01-12T06:31:38.356Z,0.20
2019-01-12T06:34:04.478Z,0.10
2019-01-12T06:36:30.578Z,0.20
2019-01-12T06:38:56.464Z,0.20
2019-01-12T06:41:22.483Z,1.07
2019-01-12T06:43:48.740Z,0.20
2019-01-12T06:46:14.768Z,0.00
2019-01-12T06:48:40.709Z,0.10
2019-01-12T06:51:06.925Z,0.10
2019-01-12T06:53:32.806Z,0.10
2019-01-12T06:55:58.883Z,0.20
2019-01-12T06:58:24.998Z,0.10
2019-01-12T07:00:51.010Z,0.10
2019-01-12T07:03:16.915Z,0.10
2019-01-12T07:05:43.159Z,0.00
2019-01-12T07:08:09.074Z,0.00
2019-01-12T07:10:35.007Z,0.10
2019-01-12T07:13:01.308Z,0.20
2019-01-12T07:15:27.331Z,0.10
2019-01-12T07:17:53.233Z,0.10
2019-01-12T07:20:19.487Z,0.10
2019-01-12T07:22:46.387Z,0.20
2019-01-12T07:25:12.515Z,0.10
2019-01-12T07:27:38.815Z,0.20
2019-01-12T07:30:16.327Z,0.17
2019-01-12T07:32:42.512Z,0.20
2019-01-12T07:35:08.505Z,0.10
2019-01-12T07:37:34.438Z,0.10
2019-01-12T07:40:00.506Z,0.10
2019-01-12T07:42:26.385Z,0.10
2019-01-12T07:44:52.293Z,0.20
2019-01-12T07:47:18.314Z,0.07
2019-01-12T07:49:44.222Z,0.10
2019-01-12T07:52:10.228Z,0.07
2019-01-12T07:54:36.360Z,0.20
2019-01-12T07:57:02.340Z,0.20
2019-01-12T07:59:28.221Z,0.10
2019-01-12T08:01:54.331Z,0.00
2019-01-12T08:04:20.334Z,0.10
2019-01-12T08:06:46.240Z,0.20
2019-01-12T08:09:12.541Z,0.77
2019-01-12T08:11:38.600Z,0.50
2019-01-12T08:14:04.487Z,0.20
2019-01-12T08:16:30.659Z,0.20
2019-01-12T08:18:56.701Z,0.00
2019-01-12T08:21:22.573Z,0.20
2019-01-12T08:23:48.764Z,0.10
2019-01-12T08:26:14.777Z,0.10
2019-01-12T08:28:40.674Z,0.10
2019-01-12T08:31:07.125Z,0.10
2019-01-12T08:33:33.059Z,0.10
2019-01-12T08:35:59.056Z,0.10
2019-01-12T08:38:25.222Z,0.20
2019-01-12T08:40:51.399Z,0.10
2019-01-12T08:43:17.300Z,0.10
2019-01-12T08:45:43.456Z,0.10
2019-01-12T08:48:09.503Z,0.00
2019-01-12T08:50:35.391Z,0.10
2019-01-12T08:53:01.476Z,0.00
2019-01-12T08:55:27.380Z,0.23
2019-01-12T08:57:53.512Z,0.27
2019-01-12T09:00:19.943Z,0.40
2019-01-12T09:02:45.942Z,0.10
2019-01-12T09:05:12.158Z,0.10
2019-01-12T09:07:38.540Z,0.17
2019-01-12T09:10:08.252Z,0.13
2019-01-12T09:12:34.153Z,0.20
2019-01-12T09:15:00.568Z,0.10
2019-01-12T09:17:26.476Z,0.10
2019-01-12T09:19:52.387Z,0.20
2019-01-12T09:22:18.437Z,0.10
2019-01-12T09:24:44.365Z,0.33
2019-01-12T09:27:10.347Z,0.20
2019-01-12T09:29:36.785Z,0.10
2019-01-12T09:32:02.890Z,0.25
2019-01-12T09:34:28.769Z,0.20
2019-01-12T09:36:54.840Z,0.40
2019-01-12T09:39:20.756Z,0.40
2019-01-12T09:41:46.801Z,0.40
2019-01-12T09:44:12.938Z,0.10
2019-01-12T09:46:39.077Z,0.10
2019-01-12T09:49:05.007Z,0.20
2019-01-12T09:51:31.147Z,0.30
2019-01-12T09:53:58.205Z,0.23
2019-01-12T09:56:24.258Z,0.30
2019-01-12T09:58:50.295Z,0.40
2019-01-12T10:01:16.216Z,0.50
2019-01-12T10:03:42.114Z,0.20
2019-01-12T10:06:08.485Z,0.43
2019-01-12T10:08:34.610Z,0.33
2019-01-12T10:11:00.749Z,0.30
2019-01-12T10:13:26.904Z,0.20
2019-01-12T10:15:52.824Z,0.10
2019-01-12T10:18:18.764Z,0.10
2019-01-12T10:20:44.853Z,0.30
2019-01-12T10:23:10.760Z,0.10
2019-01-12T10:25:36.788Z,0.07
2019-01-12T10:28:03.245Z,0.30
2019-01-12T10:30:29.135Z,0.10
2019-01-12T10:32:55.481Z,0.30
2019-01-12T10:35:21.906Z,0.23
2019-01-12T10:37:48.012Z,0.30
2019-01-12T10:40:16.324Z,0.30
2019-01-12T10:42:42.514Z,0.20
2019-01-12T10:45:11.439Z,0.30
2019-01-12T10:47:37.571Z,0.20
2019-01-12T10:50:07.463Z,0.20
2019-01-12T10:52:33.520Z,0.30
2019-01-12T10:54:59.531Z,0.30
2019-01-12T10:57:25.798Z,0.30
2019-01-12T10:59:51.730Z,0.30
2019-01-12T11:02:17.829Z,0.20
2019-01-12T11:04:44.235Z,0.20
2019-01-12T11:07:13.915Z,0.20
2019-01-12T11:09:39.834Z,0.10
2019-01-12T11:12:05.976Z,0.07
2019-01-12T11:14:31.995Z,0.10
2019-01-12T11:16:57.993Z,0.10
2019-01-12T11:19:24.300Z,0.30
2019-01-12T11:21:50.213Z,0.20
2019-01-12T11:24:16.107Z,0.30
2019-01-12T11:26:42.403Z,0.10
2019-01-12T11:29:08.470Z,0.10
2019-01-12T11:31:34.485Z,0.20
2019-01-12T11:34:00.635Z,0.10
2019-01-12T11:36:26.668Z,0.20
2019-01-12T11:38:52.670Z,0.13
2019-01-12T11:41:18.838Z,0.20
2019-01-12T11:43:44.727Z,0.10
2019-01-12T11:46:10.661Z,0.00
2019-01-12T11:48:36.645Z,0.20
2019-01-12T11:51:10.736Z,0.37
2019-01-12T11:53:36.628Z,0.20
2019-01-12T11:56:03.438Z,0.30
2019-01-12T11:58:29.489Z,0.13
2019-01-12T12:00:55.373Z,0.20
2019-01-12T12:03:21.635Z,0.20
2019-01-12T12:05:47.654Z,0.10
2019-01-12T12:08:13.564Z,0.17
2019-01-12T12:10:39.948Z,0.40
2019-01-12T12:13:05.996Z,0.30
2019-01-12T12:15:31.978Z,0.30
2019-01-12T12:17:58.119Z,0.10
2019-01-12T12:20:24.665Z,0.20
2019-01-12T12:22:50.646Z,0.17
2019-01-12T12:25:16.955Z,0.10
2019-01-12T12:27:43.049Z,0.27
2019-01-12T12:30:21.033Z,0.20
2019-01-12T12:32:47.226Z,0.10
2019-01-12T12:35:13.134Z,0.10
2019-01-12T12:37:39.468Z,0.13
2019-01-12T12:40:08.564Z,0.10
2019-01-12T12:42:34.497Z,0.20
2019-01-12T12:45:00.628Z,0.20
2019-01-12T12:47:26.743Z,0.33
2019-01-12T12:49:52.692Z,0.20
2019-01-12T12:52:19.018Z,0.20
2019-01-12T12:54:44.936Z,0.30
2019-01-12T12:57:10.949Z,0.30
2019-01-12T12:59:37.126Z,0.30
2019-01-12T13:02:03.109Z,0.20
2019-01-12T13:04:29.140Z,0.03
2019-01-12T13:06:55.496Z,0.10
2019-01-12T13:09:21.383Z,0.20
2019-01-12T13:11:47.305Z,0.10
2019-01-12T13:14:13.544Z,0.23
2019-01-12T13:16:39.441Z,0.20
2019-01-12T13:19:05.551Z,0.33
2019-01-12T13:21:31.760Z,0.40
2019-01-12T13:23:57.764Z,0.20
2019-01-12T13:26:25.578Z,0.20
2019-01-12T13:28:53.661Z,0.30
2019-01-12T13:31:19.808Z,0.30
2019-01-12T13:33:45.693Z,0.30
2019-01-12T13:36:11.690Z,0.20
2019-01-12T13:38:37.690Z,0.10
2019-01-12T13:41:03.614Z,0.40
2019-01-12T13:43:29.881Z,0.30
2019-01-12T13:45:55.815Z,0.40
2019-01-12T13:48:21.772Z,0.23
2019-01-12T13:50:47.955Z,0.33
2019-01-12T13:53:13.897Z,0.20
2019-01-12T13:55:40.043Z,0.37
2019-01-12T13:58:06.377Z,0.20
2019-01-12T14:00:32.847Z,0.40
2019-01-12T14:02:58.958Z,0.20
2019-01-12T14:05:25.027Z,0.20
2019-01-12T14:07:56.095Z,0.40
2019-01-12T14:10:19.586Z,0.20
2019-01-12T14:12:45.884Z,0.20
2019-01-12T14:15:14.211Z,0.30
2019-01-12T14:17:40.315Z,0.33
2019-01-12T14:20:10.216Z,0.23
2019-01-12T14:22:36.127Z,0.23
2019-01-12T14:25:03.149Z,0.20
2019-01-12T14:27:29.334Z,0.20
2019-01-12T14:29:55.345Z,0.20
2019-01-12T14:32:21.253Z,0.20
2019-01-12T14:34:47.328Z,0.30
2019-01-12T14:37:13.458Z,0.33
2019-01-12T14:39:39.366Z,0.20
2019-01-12T14:42:05.521Z,0.20
2019-01-12T14:44:31.669Z,0.30
2019-01-12T14:46:57.551Z,0.20
2019-01-12T14:49:23.601Z,0.20
2019-01-12T14:51:49.729Z,0.40
2019-01-12T14:54:15.635Z,0.20
2019-01-12T14:56:41.643Z,0.27
2019-01-12T14:59:07.650Z,0.33
2019-01-12T15:01:33.586Z,0.40
2019-01-12T15:04:00.007Z,0.43
2019-01-12T15:06:25.932Z,0.30
2019-01-12T15:08:51.983Z,0.57
2019-01-12T15:11:18.285Z,0.20
2019-01-12T15:13:44.171Z,0.20
2019-01-12T15:16:10.215Z,0.30
2019-01-12T15:18:36.202Z,0.30
2019-01-12T15:21:02.603Z,0.30
2019-01-12T15:23:28.753Z,0.30
2019-01-12T15:25:54.746Z,0.50
2019-01-12T15:28:20.637Z,0.23
2019-01-12T15:30:46.643Z,0.30
2019-01-12T15:33:12.758Z,0.10
2019-01-12T15:35:38.647Z,0.50
2019-01-12T15:38:04.909Z,0.60
2019-01-12T15:40:31.075Z,0.77
2019-01-12T15:42:57.190Z,0.60
2019-01-12T15:45:25.637Z,0.70
2019-01-12T15:47:51.959Z,0.87
2019-01-12T15:50:20.147Z,0.97
2019-01-12T15:52:46.283Z,1.20
2019-01-12T15:55:12.746Z,1.50
2019-01-12T15:57:38.795Z,1.87
2019-01-12T16:00:08.533Z,0.77
2019-01-12T16:02:39.841Z,0.43
2019-01-12T16:05:03.932Z,0.30
2019-01-12T16:07:29.900Z,0.40
2019-01-12T16:09:55.957Z,0.20
2019-01-12T16:12:22.099Z,0.43
2019-01-12T16:14:48.114Z,0.50
2019-01-12T16:17:14.424Z,0.57
2019-01-12T16:19:40.327Z,0.57
2019-01-12T16:22:06.342Z,0.70
2019-01-12T16:24:32.465Z,0.47
2019-01-12T16:26:58.517Z,0.67
2019-01-12T16:29:24.420Z,0.50
2019-01-12T16:31:50.494Z,0.60
2019-01-12T16:34:16.535Z,0.50
2019-01-12T16:36:42.553Z,0.63
2019-01-12T16:39:08.770Z,0.50
2019-01-12T16:41:34.917Z,0.60
2019-01-12T16:44:00.944Z,0.80
2019-01-12T16:46:27.005Z,0.60
2019-01-12T16:48:53.211Z,0.57
2019-01-12T16:51:19.256Z,0.40
2019-01-12T16:53:45.347Z,0.60
2019-01-12T16:56:11.273Z,0.50
2019-01-12T16:58:37.198Z,0.67
2019-01-12T17:01:03.551Z,0.70
2019-01-12T17:03:29.575Z,0.60
2019-01-12T17:05:55.492Z,0.80
2019-01-12T17:08:21.742Z,0.80
2019-01-12T17:10:47.659Z,0.70
2019-01-12T17:13:13.539Z,0.87
2019-01-12T17:15:39.847Z,0.73
2019-01-12T17:18:05.931Z,0.67
2019-01-12T17:20:31.861Z,0.50
2019-01-12T17:22:58.213Z,0.67
2019-01-12T17:25:24.441Z,0.40
2019-01-12T17:27:50.428Z,0.37
2019-01-12T17:30:18.953Z,0.70
2019-01-12T17:32:45.097Z,0.40
2019-01-12T17:35:11.788Z,0.83
2019-01-12T17:37:38.158Z,0.97
2019-01-12T17:40:07.679Z,0.70
2019-01-12T17:42:33.583Z,0.80
2019-01-12T17:44:59.722Z,0.90
2019-01-12T17:47:25.767Z,1.17
2019-01-12T17:49:51.771Z,1.20
2019-01-12T17:52:18.028Z,1.20
2019-01-12T17:54:44.144Z,0.73
2019-01-12T17:57:10.181Z,0.70
2019-01-12T17:59:36.420Z,1.00
2019-01-12T18:02:03.154Z,1.00
2019-01-12T18:04:29.370Z,0.80
2019-01-12T18:06:55.505Z,0.87
2019-01-12T18:09:21.437Z,1.00
2019-01-12T18:11:47.442Z,1.03
2019-01-12T18:14:13.666Z,0.83
2019-01-12T18:16:39.790Z,0.73
2019-01-12T18:19:05.899Z,1.00
2019-01-12T18:21:32.079Z,0.87
2019-01-12T18:23:57.980Z,0.83
2019-01-12T18:26:24.043Z,0.57
2019-01-12T18:28:51.569Z,0.90
2019-01-12T18:31:17.597Z,0.50
2019-01-12T18:33:43.625Z,1.00
2019-01-12T18:36:09.756Z,1.17
2019-01-12T18:38:35.701Z,1.13
2019-01-12T18:41:01.714Z,1.00
2019-01-12T18:43:28.892Z,1.20
2019-01-12T18:45:54.901Z,1.00
2019-01-12T18:48:20.918Z,1.70
2019-01-12T18:50:47.196Z,2.20
2019-01-12T18:53:13.240Z,2.10
2019-01-12T18:55:39.390Z,1.70
2019-01-12T18:58:05.752Z,1.50
2019-01-12T19:00:31.755Z,1.80
2019-01-12T19:02:57.781Z,1.67
2019-01-12T19:05:24.562Z,1.40
2019-01-12T19:07:50.600Z,1.33
2019-01-12T19:10:16.720Z,1.57
2019-01-12T19:12:42.916Z,1.90
2019-01-12T19:15:14.763Z,2.30
2019-01-12T19:17:40.797Z,2.00
2019-01-12T19:20:08.294Z,1.73
2019-01-12T19:22:34.517Z,2.03
2019-01-12T19:25:00.415Z,1.50
2019-01-12T19:27:26.635Z,0.90
2019-01-12T19:29:52.531Z,1.03
2019-01-12T19:32:18.553Z,0.70
2019-01-12T19:34:44.774Z,0.50
2019-01-12T19:37:10.777Z,0.50
2019-01-12T19:39:36.674Z,0.60
2019-01-12T19:42:02.772Z,0.63
2019-01-12T19:44:28.685Z,0.70
2019-01-12T19:46:54.692Z,0.77
2019-01-12T19:49:20.769Z,0.63
2019-01-12T19:51:46.778Z,1.03
2019-01-12T19:54:12.829Z,0.73
2019-01-12T19:56:38.937Z,0.60
2019-01-12T19:59:04.955Z,0.63
2019-01-12T20:01:31.005Z,0.50
2019-01-12T20:03:57.214Z,0.70
2019-01-12T20:06:23.111Z,0.50
2019-01-12T20:08:49.201Z,0.50
2019-01-12T20:11:15.373Z,0.60
2019-01-12T20:13:41.284Z,0.73
2019-01-12T20:16:07.275Z,0.77
2019-01-12T20:18:33.354Z,0.60
2019-01-12T20:20:59.304Z,0.60
2019-01-12T20:23:25.341Z,0.70
2019-01-12T20:25:51.547Z,0.70
2019-01-12T20:28:17.560Z,0.57
2019-01-12T20:30:47.299Z,0.67
2019-01-12T20:33:28.690Z,0.60
2019-01-12T20:36:15.101Z,0.80
2019-01-12T20:38:59.805Z,0.80
2019-01-12T20:41:46.006Z,0.60
2019-01-12T20:44:38.338Z,0.80
2019-01-12T20:47:26.219Z,0.50
2019-01-12T20:49:56.161Z,0.50
2019-01-12T20:52:45.710Z,0.73
2019-01-12T20:55:21.080Z,0.83
2019-01-12T20:58:02.773Z,0.53
2019-01-12T21:01:03.979Z,0.70
2019-01-12T21:03:50.113Z,0.83
2019-01-12T21:06:20.020Z,1.80
2019-01-12T21:08:55.382Z,1.23
2019-01-12T21:11:41.706Z,1.00
2019-01-12T21:14:20.290Z,1.30
2019-01-12T21:16:46.258Z,1.10
2019-01-12T21:19:12.189Z,1.13
2019-01-12T21:21:38.237Z,1.00
2019-01-12T21:24:04.720Z,0.80
2019-01-12T21:26:30.646Z,0.67
2019-01-12T21:28:56.750Z,0.93
2019-01-12T21:31:22.836Z,0.80
2019-01-12T21:33:48.856Z,0.67
2019-01-12T21:36:14.902Z,1.10
2019-01-12T21:38:40.926Z,0.63
2019-01-12T21:41:06.855Z,0.40
2019-01-12T21:43:32.759Z,0.33
2019-01-12T21:45:59.026Z,0.60
2019-01-12T21:48:24.921Z,0.60
2019-01-12T21:50:50.934Z,0.63
2019-01-12T21:53:17.056Z,0.60
2019-01-12T21:55:43.033Z,0.23
2019-01-12T21:58:09.038Z,0.53
2019-01-12T22:00:35.165Z,0.33
2019-01-12T22:03:01.412Z,0.50
2019-01-12T22:05:27.329Z,0.50
2019-01-12T22:07:53.566Z,0.40
2019-01-12T22:10:19.579Z,0.43
2019-01-12T22:12:45.675Z,0.60
2019-01-12T22:15:13.704Z,0.50
2019-01-12T22:17:39.821Z,0.30
2019-01-12T22:20:09.549Z,0.30
2019-01-12T22:22:35.720Z,0.57
2019-01-12T22:25:01.752Z,0.60
2019-01-12T22:27:27.650Z,0.30
2019-01-12T22:29:53.739Z,0.40
2019-01-12T22:32:19.776Z,0.30
2019-01-12T22:34:45.679Z,0.37
2019-01-12T22:37:11.683Z,0.27
2019-01-12T22:39:37.594Z,0.40
2019-01-12T22:42:03.654Z,0.47
2019-01-12T22:44:29.784Z,0.60
2019-01-12T22:46:55.727Z,0.30
2019-01-12T22:49:21.750Z,0.40
2019-01-12T22:51:47.954Z,0.50
2019-01-12T22:54:13.903Z,0.30
2019-01-12T22:56:39.926Z,0.30
2019-01-12T22:59:06.225Z,0.60
2019-01-12T23:01:36.130Z,0.60
2019-01-12T23:04:02.538Z,0.43
2019-01-12T23:06:28.544Z,0.43
2019-01-12T23:08:54.449Z,0.47
2019-01-12T23:11:20.468Z,0.50
2019-01-12T23:13:46.538Z,0.50
2019-01-12T23:16:12.664Z,0.50
2019-01-12T23:18:38.547Z,0.40
2019-01-12T23:21:04.830Z,0.37
2019-01-12T23:23:30.758Z,0.50
2019-01-12T23:25:56.840Z,0.33
2019-01-12T23:28:22.859Z,0.50
2019-01-12T23:30:48.820Z,0.40
2019-01-12T23:33:14.812Z,0.50
2019-01-12T23:35:40.979Z,0.33
2019-01-12T23:38:07.209Z,0.30
2019-01-12T23:40:33.244Z,0.53
2019-01-12T23:43:00.895Z,0.50
2019-01-12T23:45:27.072Z,0.30
2019-01-12T23:47:53.095Z,0.30
2019-01-12T23:50:19.194Z,0.33
2019-01-12T23:52:45.302Z,0.50
2019-01-12T23:55:11.612Z,0.47
2019-01-12T23:57:37.767Z,0.10
